Petit-Hallet, Belgium

5:14 PM CEST on April 24, 2017 (GMT +0200)
Belgium | | Change Station

Elev 318 ft 50.71 °N, 5.04 °E | Updated 27 seconds ago

Partly Cloudy
Partly Cloudy
60.6 °F
Feels Like 60.6 °F
N
1.0
Wind Variable Wind from South
Gusts 8.0 mph

Today
High -- | Low -- °F
--% Chance of Precip.
Yesterday
High -- | Low -- °F
Precip. -- in
Pressure 29.89 in
Visibility 6.2 miles
Clouds Mostly Cloudy 5000 ft
Dew Point 40 °F
Humidity 46%
Rainfall 0.00 in
Snow Depth Not available.
6:27 AM 8:49 PM
Waning Crescent, 5% visible
METAR EBBE 241455Z 26009KT 9999 BKN050 14/02 Q1012 BLU BLU
Pressure 29.89 in
Visibility 6.2 miles
Clouds Mostly Cloudy 5000 ft
Dew Point 40 °F
Humidity 46%
Rainfall 0.00 in
Snow Depth Not available.
6:27 AM 8:49 PM
Waning Crescent, 5% visible
METAR EBBE 241455Z 26009KT 9999 BKN050 14/02 Q1012 BLU BLU

Get Severe Weather Alerts

Thanks for signing up!

Be on the lookout for a verification email in your inbox.

You'll start receiving the daily forecast at 8 AM.

×

10-Day Weather Forecast

×

Almanac

Astronomy

Apr. 24, 2017 Rise Set
Actual Time
Civil Twilight
Nautical Twilight
Astronomical Twilight
Moon
Length of Visible Light
Length of Day
Tomorrow will be .
, % of the Moon is Illuminated

Today's Extremes

Country Highs Country Lows

Community

WunderPhotos

WunderBlog® & News

Nearby

Air Quality

  Air Quality AQ Index Pollutant
Not available.

Snow Depth

Station Depth Elevation

Earthquake Activity

City Distance Mag. Time & Date
Minimum magnitude displayed is 2.5.

Coastal Water Temperatures

Place Temperature

Stations

Nearby Weather Stations

Station Location Temp. Windchill Dew Point Humidity Wind Precip. Elev Updated Type